EGSS

London Stansted Airport

London, United Kingdom

EGSS 242020Z AUTO 11009KT 6000 -RA //////TCU 15/12 Q1020

Observed Flight Rules
Sep-24 @ 20:20 UTC (37 minutes ago)
Unavailable
Wind Visibility Conditions
110° at 9 knots 6,003 meters
  • Light Rain
Temperatures Readings
Current 15°C / 59°F
Dewpoint 12°C / 54°F
Humidity 82%
Altimeter 30.12" Hg
Pressure 1020 hPa
Elevation 106
Observed Flight Rules
Sep-24 @ 20:20 UTC
(37 minutes ago)
UNK
Wind Visibility
110° at 9 knots 6,003 meters
Conditions
  • Light Rain
Temperature Dewpoint
15°C / 59°F 12°C / 54°F
Humidity Altimeter Pressure
82% 30.12" Hg 1020 hPa